Time;durP1;ratioP1;P1;durP2;ratioP2;P2;SDS_P1;SDS_P2;PMS_P1;PMS_P2;Temp;Humidity;BMP_temperature;BMP_pressure;BME280_temperature;BME280_humidity;BME280_pressure;Samples;Min_cycle;Max_cycle;Signal;HPM_P1;HPM_P2
2021/11/23 09:19:53;;;;;;;12.43;11.05;;;;;;;;;;4793733;29;20064;-83
2021/11/23 09:33:11;;;;;;;12.30;10.48;;;;;;;;;;4829541;29;20034;-83
2021/11/23 09:46:44;;;;;;;13.98;11.32;;;;;;;;;;4740252;30;20056;-83
2021/11/23 10:00:19;;;;;;;11.95;10.70;;;;;;;;;;4697251;30;20130;-83
2021/11/23 10:03:45;;;;;;;12.30;11.00;;;;;;;;;;4704812;30;20050;-82
2021/11/23 10:14:26;;;;;;;13.13;11.15;;;;;;;;;;4733807;30;20060;-83
2021/11/23 10:42:02;;;;;;;18.95;14.05;;;;;;;;;;4743094;30;20060;-83
2021/11/23 10:48:51;;;;;;;13.48;11.50;;;;;;;;;;4795879;29;20096;-84
2021/11/23 10:59:26;;;;;;;13.07;11.77;;;;;;;;;;4772274;29;20090;-83
2021/11/23 11:03:20;;;;;;;13.25;11.60;;;;;;;;;;4754480;30;20402;-84
2021/11/23 11:10:07;;;;;;;13.25;11.57;;;;;;;;;;4832772;29;20078;-83
2021/11/23 11:17:14;;;;;;;11.70;10.50;;;;;;;;;;4755744;29;20079;-82
2021/11/23 11:21:03;;;;;;;11.40;10.27;;;;;;;;;;4762102;30;20029;-83
2021/11/23 12:45:59;;;;;;;11.85;10.63;;;;;;;;;;5981573;23;20127;-86
2021/11/23 12:59:10;;;;;;;9.23;8.32;;;;;;;;;;5000018;28;20082;-84
2021/11/23 17:11:08;;;;;;;15.25;13.30;;;;;;;;;;4895905;29;20056;-80
2021/11/23 17:13:34;;;;;;;17.20;15.40;;;;;;;;;;4899100;29;20040;-81
2021/11/23 17:15:59;;;;;;;15.63;13.98;;;;;;;;;;4894529;29;20031;-80
2021/11/23 17:18:25;;;;;;;14.02;11.80;;;;;;;;;;4899774;29;20067;-79
2021/11/23 17:20:52;;;;;;;13.98;12.48;;;;;;;;;;4904870;29;20461;-80
2021/11/23 17:23:17;;;;;;;13.00;11.70;;;;;;;;;;4896923;29;20065;-81
2021/11/23 17:25:47;;;;;;;15.35;13.80;;;;;;;;;;4898676;29;20111;-81
2021/11/23 17:28:12;;;;;;;14.38;12.88;;;;;;;;;;4889110;29;20589;-80
2021/11/23 17:30:38;;;;;;;12.27;11.00;;;;;;;;;;4902215;29;20035;-80
2021/11/23 17:33:05;;;;;;;15.70;12.73;;;;;;;;;;4894639;29;20048;-80
2021/11/23 17:35:31;;;;;;;14.35;12.85;;;;;;;;;;4894591;29;20490;-80
2021/11/23 17:37:58;;;;;;;12.63;11.30;;;;;;;;;;4897318;29;20024;-81
2021/11/23 17:40:24;;;;;;;13.90;12.50;;;;;;;;;;4897838;29;20061;-81
2021/11/23 17:42:50;;;;;;;13.50;12.13;;;;;;;;;;4896691;29;20041;-80
2021/11/23 17:45:16;;;;;;;13.73;12.32;;;;;;;;;;4898117;29;20031;-79
2021/11/23 17:47:42;;;;;;;14.32;12.77;;;;;;;;;;4893944;29;20041;-80
2021/11/23 17:50:14;;;;;;;14.77;13.27;;;;;;;;;;4897103;29;20066;-80
2021/11/23 17:52:40;;;;;;;13.57;12.13;;;;;;;;;;4897601;29;20037;-81
2021/11/23 17:55:08;;;;;;;14.35;11.65;;;;;;;;;;4898139;29;20025;-79
2021/11/23 17:57:34;;;;;;;14.10;12.60;;;;;;;;;;4894808;29;20036;-79
2021/11/23 18:00:04;;;;;;;15.43;13.82;;;;;;;;;;4905746;29;20115;-79
2021/11/23 18:02:29;;;;;;;15.15;13.50;;;;;;;;;;4900530;29;20036;-80
2021/11/23 18:04:56;;;;;;;15.70;13.07;;;;;;;;;;4888332;29;20054;-81
2021/11/23 18:07:22;;;;;;;15.15;12.98;;;;;;;;;;4897475;29;20028;-80
2021/11/23 18:09:48;;;;;;;14.32;11.63;;;;;;;;;;4916584;29;20466;-81
2021/11/23 18:12:16;;;;;;;14.50;13.02;;;;;;;;;;4915301;29;20039;-79
2021/11/23 18:14:42;;;;;;;13.63;12.15;;;;;;;;;;4914220;29;20412;-80
2021/11/23 18:17:07;;;;;;;15.30;12.77;;;;;;;;;;4929818;29;20044;-81
2021/11/23 18:19:33;;;;;;;16.75;12.00;;;;;;;;;;4915749;29;20036;-81
2021/11/23 18:22:01;;;;;;;15.20;13.35;;;;;;;;;;4931802;29;20047;-82
2021/11/23 18:24:27;;;;;;;14.38;12.82;;;;;;;;;;4917357;29;20043;-81
2021/11/23 18:26:53;;;;;;;13.95;12.55;;;;;;;;;;4913951;29;20061;-81
2021/11/23 18:29:21;;;;;;;17.17;13.95;;;;;;;;;;4911720;29;20059;-81
2021/11/23 18:31:48;;;;;;;15.48;13.85;;;;;;;;;;4909287;29;20107;-82
2021/11/23 18:34:16;;;;;;;15.48;12.77;;;;;;;;;;4909361;29;20117;-81
2021/11/23 18:36:43;;;;;;;14.90;13.13;;;;;;;;;;4923911;29;20398;-82
2021/11/23 18:39:08;;;;;;;14.20;12.70;;;;;;;;;;4927437;29;20104;-82
2021/11/23 18:41:35;;;;;;;16.25;12.68;;;;;;;;;;4912922;29;20123;-81
2021/11/23 18:44:00;;;;;;;14.32;12.50;;;;;;;;;;4915324;29;20050;-82
2021/11/23 18:46:26;;;;;;;15.82;12.95;;;;;;;;;;4924070;29;20040;-82
2021/11/23 18:48:52;;;;;;;15.02;13.43;;;;;;;;;;4913463;29;20037;-82
2021/11/23 18:51:19;;;;;;;15.85;13.13;;;;;;;;;;4907841;29;20115;-82
2021/11/23 18:53:45;;;;;;;15.18;12.07;;;;;;;;;;4923653;29;20041;-82
2021/11/23 18:56:11;;;;;;;15.23;12.55;;;;;;;;;;4917900;29;20028;-82
2021/11/23 18:58:38;;;;;;;14.70;11.77;;;;;;;;;;4917087;29;20043;-81
2021/11/23 19:01:06;;;;;;;19.40;16.70;;;;;;;;;;4920357;29;20028;-82
2021/11/23 19:03:40;;;;;;;15.25;13.65;;;;;;;;;;4934592;29;20032;-82
2021/11/23 19:06:06;;;;;;;14.90;13.10;;;;;;;;;;4920578;29;20021;-81
2021/11/23 19:08:32;;;;;;;15.13;13.43;;;;;;;;;;4919067;29;20038;-82
2021/11/23 19:10:58;;;;;;;17.42;14.40;;;;;;;;;;4916665;29;20032;-81
2021/11/23 19:13:26;;;;;;;14.90;13.30;;;;;;;;;;4919261;29;20076;-81
2021/11/23 19:15:54;;;;;;;15.23;13.23;;;;;;;;;;4920284;29;20031;-82
2021/11/23 19:18:20;;;;;;;18.15;13.48;;;;;;;;;;4934129;29;20516;-81
2021/11/23 19:20:49;;;;;;;14.43;12.93;;;;;;;;;;4919442;29;20035;-81
2021/11/23 19:23:15;;;;;;;16.23;13.18;;;;;;;;;;4936551;29;20493;-80
2021/11/23 19:25:41;;;;;;;13.60;12.27;;;;;;;;;;4920545;29;20043;-81
2021/11/23 19:28:09;;;;;;;16.15;12.35;;;;;;;;;;4935738;29;20040;-82
2021/11/23 19:30:36;;;;;;;16.63;12.75;;;;;;;;;;4919622;29;20087;-83
2021/11/23 19:33:02;;;;;;;15.48;12.68;;;;;;;;;;4922251;29;20040;-81
2021/11/23 19:35:50;;;;;;;14.52;12.57;;;;;;;;;;4951460;29;20036;-82
2021/11/23 19:38:18;;;;;;;15.00;12.88;;;;;;;;;;4920194;29;21694;-83
2021/11/23 19:40:45;;;;;;;17.25;14.45;;;;;;;;;;4920964;29;20033;-82
2021/11/23 19:43:12;;;;;;;15.82;12.88;;;;;;;;;;4916146;29;20024;-81
2021/11/23 19:45:39;;;;;;;15.90;14.20;;;;;;;;;;4919636;29;20024;-81
2021/11/23 19:48:05;;;;;;;15.18;13.40;;;;;;;;;;4921700;29;20058;-80
2021/11/23 19:50:32;;;;;;;15.95;14.27;;;;;;;;;;4919846;29;20040;-81
2021/11/23 19:53:08;;;;;;;15.70;14.02;;;;;;;;;;4910585;29;20052;-81
2021/11/23 19:55:37;;;;;;;15.25;13.65;;;;;;;;;;4926572;29;20040;-81
2021/11/23 19:58:06;;;;;;;22.40;17.77;;;;;;;;;;4933612;29;20039;-81
2021/11/23 20:00:35;;;;;;;16.52;14.48;;;;;;;;;;4921369;29;20131;-81
2021/11/23 20:03:02;;;;;;;15.93;13.77;;;;;;;;;;4921484;29;20028;-81
2021/11/23 20:05:29;;;;;;;15.63;13.98;;;;;;;;;;4937273;29;20043;-82
2021/11/23 20:07:56;;;;;;;15.68;13.98;;;;;;;;;;4919067;29;20040;-81
2021/11/23 20:10:25;;;;;;;17.67;14.68;;;;;;;;;;4894801;29;20047;-81
2021/11/23 20:12:52;;;;;;;15.82;14.18;;;;;;;;;;4897948;29;20041;-81
2021/11/23 20:15:21;;;;;;;15.43;13.82;;;;;;;;;;4897475;29;20032;-81
2021/11/23 20:17:50;;;;;;;17.33;15.52;;;;;;;;;;4891800;29;20039;-80
2021/11/23 20:20:19;;;;;;;18.48;16.25;;;;;;;;;;4900030;29;20033;-81
2021/11/23 20:22:46;;;;;;;17.38;14.55;;;;;;;;;;4898309;29;20581;-82
2021/11/23 20:25:12;;;;;;;36.38;31.75;;;;;;;;;;4884131;29;20065;-81
2021/11/23 20:27:38;;;;;;;34.28;27.25;;;;;;;;;;4898358;29;20111;-80
2021/11/23 20:30:09;;;;;;;19.65;16.40;;;;;;;;;;4901362;29;20024;-81
2021/11/23 20:32:35;;;;;;;23.35;18.80;;;;;;;;;;4885356;29;20037;-82
2021/11/23 20:35:01;;;;;;;26.02;19.17;;;;;;;;;;4877440;29;20065;-81
2021/11/23 20:37:27;;;;;;;35.38;25.70;;;;;;;;;;4888264;29;20028;-80
2021/11/23 20:39:53;;;;;;;33.53;26.23;;;;;;;;;;4880067;29;20455;-81
2021/11/23 20:42:19;;;;;;;32.75;24.98;;;;;;;;;;4899413;29;20037;-80
2021/11/23 20:44:46;;;;;;;24.65;19.52;;;;;;;;;;4885737;29;20064;-81
2021/11/23 20:47:13;;;;;;;36.85;27.38;;;;;;;;;;4898733;29;20037;-81
2021/11/23 20:49:40;;;;;;;34.38;26.77;;;;;;;;;;4890336;29;20033;-81
2021/11/23 20:52:07;;;;;;;31.42;24.73;;;;;;;;;;4882510;29;20453;-81
2021/11/23 20:54:34;;;;;;;20.20;17.58;;;;;;;;;;4896012;29;20032;-81
2021/11/23 20:56:59;;;;;;;22.13;16.63;;;;;;;;;;4904417;29;20029;-80
2021/11/23 20:59:28;;;;;;;17.58;15.40;;;;;;;;;;4894343;29;20519;-81
2021/11/23 21:01:56;;;;;;;17.90;16.00;;;;;;;;;;4878270;29;20061;-81
2021/11/23 21:04:22;;;;;;;16.98;15.18;;;;;;;;;;4887787;29;20032;-80
2021/11/23 21:06:47;;;;;;;17.58;15.25;;;;;;;;;;4882298;29;20494;-81
2021/11/23 21:09:13;;;;;;;17.25;14.40;;;;;;;;;;4894654;29;20056;-81
2021/11/23 21:11:39;;;;;;;16.73;14.93;;;;;;;;;;4918581;29;20032;-80
2021/11/23 21:14:07;;;;;;;17.60;15.68;;;;;;;;;;4948812;29;20079;-81
2021/11/23 21:16:33;;;;;;;16.75;14.77;;;;;;;;;;4918178;29;20043;-80
2021/11/23 21:18:59;;;;;;;17.15;14.98;;;;;;;;;;4919625;29;20064;-82
2021/11/23 21:21:26;;;;;;;16.15;14.48;;;;;;;;;;4926590;29;20087;-80
2021/11/23 21:23:52;;;;;;;18.40;14.38;;;;;;;;;;4918177;29;20038;-81
2021/11/23 21:26:17;;;;;;;15.77;14.18;;;;;;;;;;4918910;29;20130;-81
2021/11/23 21:28:51;;;;;;;15.98;14.27;;;;;;;;;;4917619;29;20036;-81
2021/11/23 21:31:18;;;;;;;16.02;14.32;;;;;;;;;;4920583;29;20062;-81
2021/11/23 21:33:44;;;;;;;14.93;12.93;;;;;;;;;;4932905;29;20187;-81
2021/11/23 21:36:10;;;;;;;15.75;14.00;;;;;;;;;;4919040;29;20032;-80
2021/11/23 21:38:42;;;;;;;17.45;14.48;;;;;;;;;;4918146;29;20146;-81
2021/11/23 21:41:08;;;;;;;15.30;13.70;;;;;;;;;;4915951;29;20040;-81
2021/11/23 21:43:38;;;;;;;15.88;13.93;;;;;;;;;;4917959;29;20047;-82
2021/11/23 21:46:14;;;;;;;17.15;15.35;;;;;;;;;;4945602;28;20047;-82
2021/11/23 21:48:46;;;;;;;16.88;15.18;;;;;;;;;;4918448;29;20067;-81
2021/11/23 21:51:13;;;;;;;16.83;14.63;;;;;;;;;;4918751;29;20115;-82
2021/11/23 21:53:43;;;;;;;16.63;14.82;;;;;;;;;;4918960;29;20016;-82
2021/11/23 21:56:11;;;;;;;17.10;14.85;;;;;;;;;;4917966;29;20043;-82
2021/11/23 21:58:40;;;;;;;18.67;16.60;;;;;;;;;;4917805;29;20490;-81
2021/11/23 22:01:06;;;;;;;20.40;16.08;;;;;;;;;;4947850;29;20044;-81
2021/11/23 22:03:33;;;;;;;17.88;15.95;;;;;;;;;;4916514;29;20409;-81
2021/11/23 22:06:00;;;;;;;16.98;15.18;;;;;;;;;;4918377;29;20084;-81
2021/11/23 22:08:26;;;;;;;17.67;15.75;;;;;;;;;;4918001;29;20409;-81
2021/11/23 22:10:56;;;;;;;17.55;15.75;;;;;;;;;;4932271;29;20088;-80
2021/11/23 22:13:25;;;;;;;18.52;16.13;;;;;;;;;;4917634;29;20024;-82
2021/11/23 22:15:52;;;;;;;19.23;16.88;;;;;;;;;;4917338;29;20062;-81
2021/11/23 22:18:19;;;;;;;20.15;16.33;;;;;;;;;;4916899;29;20028;-81
2021/11/23 22:20:44;;;;;;;18.05;16.13;;;;;;;;;;4930896;29;20028;-81
2021/11/23 22:23:11;;;;;;;18.85;16.73;;;;;;;;;;4918555;29;20405;-81
2021/11/23 22:25:36;;;;;;;20.13;16.95;;;;;;;;;;4932759;29;20417;-81
2021/11/23 22:28:05;;;;;;;19.50;16.90;;;;;;;;;;4918149;29;20032;-81
2021/11/23 22:30:31;;;;;;;19.77;17.20;;;;;;;;;;4921906;29;20087;-80
2021/11/23 22:32:57;;;;;;;18.65;16.65;;;;;;;;;;4922595;29;20032;-81
2021/11/23 22:35:30;;;;;;;18.90;16.35;;;;;;;;;;4921650;29;20025;-81
2021/11/23 22:37:59;;;;;;;20.60;17.52;;;;;;;;;;4922337;29;20039;-82
2021/11/23 22:40:24;;;;;;;20.13;17.10;;;;;;;;;;4952941;28;20039;-82
2021/11/23 22:42:50;;;;;;;21.80;17.45;;;;;;;;;;4936552;29;20032;-81
2021/11/23 22:45:15;;;;;;;22.20;19.30;;;;;;;;;;4922689;29;20116;-82
2021/11/23 22:47:41;;;;;;;22.15;19.45;;;;;;;;;;4922845;29;20050;-81
2021/11/23 22:50:16;;;;;;;25.17;22.48;;;;;;;;;;4953218;28;20032;-82
2021/11/23 22:52:44;;;;;;;22.85;20.40;;;;;;;;;;4948312;28;20541;-82
2021/11/23 22:55:09;;;;;;;23.55;20.67;;;;;;;;;;4907562;29;20024;-82
2021/11/23 22:57:37;;;;;;;20.73;18.50;;;;;;;;;;4921646;29;20133;-81
2021/11/23 23:00:07;;;;;;;32.40;26.02;;;;;;;;;;4937780;29;20075;-82
2021/11/23 23:02:33;;;;;;;21.80;19.38;;;;;;;;;;4937232;29;20465;-82
2021/11/23 23:04:59;;;;;;;20.02;17.40;;;;;;;;;;4918088;29;20047;-81
2021/11/23 23:07:25;;;;;;;21.92;17.73;;;;;;;;;;4921311;29;20044;-82
2021/11/23 23:09:51;;;;;;;21.33;18.08;;;;;;;;;;4920527;29;20059;-82
2021/11/23 23:12:21;;;;;;;23.50;19.05;;;;;;;;;;4920761;29;20035;-82
2021/11/23 23:14:46;;;;;;;20.73;18.48;;;;;;;;;;4922315;29;20496;-81
2021/11/23 23:17:16;;;;;;;21.95;18.90;;;;;;;;;;4916898;29;20028;-81
2021/11/23 23:19:43;;;;;;;24.85;21.08;;;;;;;;;;4920413;29;20056;-81
2021/11/23 23:22:10;;;;;;;27.58;21.80;;;;;;;;;;4921885;29;20127;-82
2021/11/23 23:24:40;;;;;;;28.65;25.02;;;;;;;;;;4922158;29;20091;-82
2021/11/23 23:27:09;;;;;;;30.65;25.38;;;;;;;;;;4922146;29;20016;-82
2021/11/23 23:29:37;;;;;;;24.35;21.25;;;;;;;;;;4922185;29;20040;-82
2021/11/23 23:32:03;;;;;;;24.58;20.40;;;;;;;;;;4920782;29;20153;-81
2021/11/23 23:34:30;;;;;;;20.40;18.20;;;;;;;;;;4916091;29;20032;-81
2021/11/23 23:36:57;;;;;;;23.63;18.45;;;;;;;;;;4907136;29;20080;-81
2021/11/23 23:39:24;;;;;;;22.33;19.27;;;;;;;;;;4919689;29;20512;-81
2021/11/23 23:41:51;;;;;;;21.88;19.55;;;;;;;;;;4918436;29;20294;-81
2021/11/23 23:44:17;;;;;;;21.73;19.42;;;;;;;;;;4918809;29;20043;-82
2021/11/23 23:46:42;;;;;;;20.23;17.63;;;;;;;;;;4915760;29;20029;-81
2021/11/23 23:49:08;;;;;;;20.48;17.15;;;;;;;;;;4914698;29;20092;-81
2021/11/23 23:51:34;;;;;;;19.25;17.20;;;;;;;;;;4918276;29;20464;-81
2021/11/23 23:54:00;;;;;;;21.00;17.73;;;;;;;;;;4918869;29;20473;-82
2021/11/23 23:56:26;;;;;;;17.23;15.43;;;;;;;;;;4919553;29;20032;-81
2021/11/23 23:58:51;;;;;;;17.58;15.70;;;;;;;;;;4918987;29;20036;-81
